KBAD/BAD METAR and TAF weather

Enter ICAO airport designator
Station Type Date Time Source
KBAD METAR 2019/04/24 21:34 UTC NOAA

KBAD 242134Z AUTO 21003KT 10SM SCT055 BKN100 22/19 A2984 RMK AO2 RAB03E34 SLP107


Station Type Date Time Source
KBAD Decoded METAR 2019/04/24 21:34 UTC NOAA

Barksdale Air Force Base, LA, United States (KBAD) 32-30N 093-40W
Apr 24, 2019 - 05:34 PM EDT / 2019.04.24 2134 UTC
Wind: from the SSW (210 degrees) at 3 MPH (3 KT):0
Visibility: 10 mile(s):0
Sky conditions: mostly cloudy
Temperature: 71 F (22 C)
Dew Point: 66 F (19 C)
Relative Humidity: 83%
Pressure (altimeter): 29.84 in. Hg (1010 hPa)
ob: KBAD 242134Z AUTO 21003KT 10SM SCT055 BKN100 22/19 A2984 RMK AO2 RAB03E34 SLP107
cycle: 21

Station Type Date Time Source
KBAD TAF 2019/04/24 18:20 UTC NOAA

TAF KBAD 241800Z 2418/2524 17010KT 9999 VCSH BKN030 OVC150 QNH2985INS
BECMG 2420/2421 19010KT 9999 -SHRA VCTS BKN035CB OVC120 QNH2980INS
BECMG 2505/2506 17010G15KT 8000 TSRA OVC010CB QNH2971INS
BECMG 2513/2514 25014G22KT 9999 NSW OVC020 QNH2977INS
BECMG 2519/2520 30015G25KT 9999 -SHRA VCTS OVC015CB QNH2975INS TX26/2422Z TN16/2512Z

Example: see airport list